** WELKOM OP ONZE WEBSITE MET ACTUELE WEERDATA VANUIT IZEGEM **
Het weer levert geen direct gevaar op.    Er zijn geen waarschuwingen afgegeven.

Weercam te Izegem Meer informatie Weercam te Izegem


Lokaal brand risico:
FWI


Regionaal brand risico: Meer informatie


Steun ons initiatief via een kleine donatie!



METAR rapporten vliegvelden

   
EBOS - Oostende Airport, Belgium
Afstand tot: NW 39 km
Gewijzigd: 05-04-2020 01:20
Helder  
Helder  
   Wind: Oosten 13 km/h
Wind: Oosten 13 km/h
Temperatuur: 7°C
Voelt als: 4°C
Dauwpunt: 1°C
Vochtigheid: 66%
Barometer: 1021 hPa
Zicht: meer dan 10 km
Bewolking: Helder ft
EBOS 042320Z 10007KT CAVOK 07/01 Q1021 NOSIG
LFQQ - Lille/Lesquin, France
Afstand tot: Z 40 km
Gewijzigd: 05-04-2020 01:30
Helder  
Helder  
   Wind: Oosten 11.1 km/h
Wind: Oosten 11.1 km/h
Temperatuur: 8°C
Voelt als: 6°C
Dauwpunt: 1°C
Vochtigheid: 62%
Barometer: 1020 hPa
Zicht: meer dan 10 km
Bewolking: Helder ft
LFQQ 042330Z AUTO 08006KT CAVOK 08/01 Q1020 NOSIG
EBFN - Koksijde (bel-Af, Belgium
Afstand tot: WNW 43 km
Gewijzigd: 05-04-2020 01:25
Helder  
Helder  
   Wind: Oosten 9.3 km/h
Wind: Oosten 9.3 km/h
Temperatuur: 6°C
Voelt als: 4°C
Dauwpunt: 2°C
Vochtigheid: 76%
Barometer: 1021 hPa
Bewolking: Clear
Zicht: meer dan 10 km
Bewolking: Helder ft
EBFN 042325Z AUTO 10005KT 9999 NCD 06/02 Q1021 BLU
EBCV - Chievres Ab, Belgium
Afstand tot: ZO 59 km
Gewijzigd: 05-04-2020 01:25
Helder  
Helder  
   Wind: OZO 11.1 km/h
Wind: OZO 11.1 km/h
Temperatuur: 5°C
Voelt als: 2°C
Dauwpunt: 2°C
Vochtigheid: 81%
Barometer: 1021 hPa
Bewolking: Clear
Zicht: meer dan 10 km
Bewolking: Helder ft
EBCV 042325Z AUTO 11006KT 9999 NCD 05/02 Q1021 BLU
EHFS - Vlissingen, Netherlands
Afstand tot: NNO 65 km
Gewijzigd: 05-04-2020 01:25
Helder  
Helder  
   Wind: Oosten 18.5 km/h
Wind: Oosten 18.5 km/h
Temperatuur: 9°C
Voelt als: 6°C
Dauwpunt: 4°C
Vochtigheid: 71%
Barometer: 1021 hPa
Bewolking: Clear
Zicht: meer dan 10 km
Bewolking: Helder ft
EHFS 042325Z AUTO 10010KT 9999 NCD 09/04 Q1021
EBBR - Brussels Nationa, Belgium
Afstand tot: O 91 km
Gewijzigd: 05-04-2020 01:20
Helder  
Helder  
   Wind: OZO 11.1 km/h
Wind: OZO 11.1 km/h
Temperatuur: 8°C
Voelt als: 6°C
Dauwpunt: -1°C
Vochtigheid: 53%
Barometer: 1022 hPa
Zicht: meer dan 10 km
Bewolking: Helder ft
EBBR 042320Z 12006KT CAVOK 08/M01 Q1022 NOSIG
EBAW - Antwerp/Deurne, Belgium
Afstand tot: ONO 94 km
Gewijzigd: 05-04-2020 01:20
Helder  
Helder  
   Wind: Oosten 5.6 km/h
Wind: Oosten 5.6 km/h
Temperatuur: 5°C
Voelt als: 4°C
Dauwpunt: -1°C
Vochtigheid: 66%
Barometer: 1022 hPa
Zicht: meer dan 10 km
Bewolking: Helder ft
EBAW 042320Z AUTO 10003KT CAVOK 05/M01 Q1022
EHWO - Woensdrecht Rnla, Netherlands
Afstand tot: NO 98 km
Gewijzigd: 05-04-2020 01:25
Helder  
Helder  
   Wind: Oosten 7.4 km/h
Wind: Oosten 7.4 km/h
Temperatuur: 5°C
Voelt als: 3°C
Dauwpunt: -2°C
Vochtigheid: 61%
Barometer: 1022 hPa
Bewolking: Clear
Zicht: meer dan 10 km
Bewolking: Helder ft
EHWO 042325Z AUTO 09004KT 9999 NCD 05/M02 Q1022 BLU
EBCI - Charleroi/Gossel, Belgium
Afstand tot: OZO 102 km
Gewijzigd: 05-04-2020 01:20
Helder  
Helder  
   Wind: OZO 9.3 km/h
Wind: OZO 9.3 km/h
Temperatuur: 8°C
Voelt als: 7°C
Dauwpunt: 0°C
Vochtigheid: 57%
Barometer: 1022 hPa
Zicht: meer dan 10 km
Bewolking: Helder ft
EBCI 042320Z AUTO 11005KT CAVOK 08/00 Q1022

Script ontwikkeld door  Saratoga-weather.org Aangepast voor de template door  Weerstation Leuven